<?xml version="1.0" encoding="UTF-8" standalone="no" ?>
<gpx xmlns="http://www.topografix.com/GPX/1/1" xmlns:xsi="http://www.w3.org/2001/XMLSchema-instance" xsi:schemaLocation="http://www.topografix.com/GPX/1/1 http://www.topografix.com/GPX/1/1/gpx.xsd" version="1.1" creator="VisuGPX - https://www.visugpx.com">
  <metadata>
    <name>Les Vans Les Salelles</name>
  </metadata>
  <trk>
    <name><![CDATA[randogps7-326]]></name>
    <trkseg>
      <trkpt lat="44.41807" lon="4.10419">
        <ele>208</ele>
        <time>2018-02-28T21:45:56Z</time>
      </trkpt>
      <trkpt lat="44.41817" lon="4.10417">
        <ele>207</ele>
        <time>2018-02-28T21:46:56Z</time>
      </trkpt>
      <trkpt lat="44.41842" lon="4.10407">
        <ele>202</ele>
        <time>2018-02-28T21:47:56Z</time>
      </trkpt>
      <trkpt lat="44.41901" lon="4.10381">
        <ele>189</ele>
        <time>2018-02-28T21:48:56Z</time>
      </trkpt>
      <trkpt lat="44.41917" lon="4.10376">
        <ele>186</ele>
        <time>2018-02-28T21:49:56Z</time>
      </trkpt>
      <trkpt lat="44.41951" lon="4.10362">
        <ele>189</ele>
        <time>2018-02-28T21:50:56Z</time>
      </trkpt>
      <trkpt lat="44.42005" lon="4.10333">
        <ele>191</ele>
        <time>2018-02-28T21:51:56Z</time>
      </trkpt>
      <trkpt lat="44.42061" lon="4.10293">
        <ele>194</ele>
        <time>2018-02-28T21:52:56Z</time>
      </trkpt>
      <trkpt lat="44.42095" lon="4.10261">
        <ele>190</ele>
        <time>2018-02-28T21:53:56Z</time>
      </trkpt>
      <trkpt lat="44.42121" lon="4.10233">
        <ele>191</ele>
        <time>2018-02-28T21:54:56Z</time>
      </trkpt>
      <trkpt lat="44.42154" lon="4.10133">
        <ele>174</ele>
        <time>2018-02-28T21:55:56Z</time>
      </trkpt>
      <trkpt lat="44.42185" lon="4.10094">
        <ele>172</ele>
        <time>2018-02-28T21:56:56Z</time>
      </trkpt>
      <trkpt lat="44.42224" lon="4.10046">
        <ele>174</ele>
        <time>2018-02-28T21:57:56Z</time>
      </trkpt>
      <trkpt lat="44.42178" lon="4.10069">
        <ele>168</ele>
        <time>2018-02-28T21:58:56Z</time>
      </trkpt>
      <trkpt lat="44.42187" lon="4.10043">
        <ele>168</ele>
        <time>2018-02-28T21:59:56Z</time>
      </trkpt>
      <trkpt lat="44.42176" lon="4.10024">
        <ele>164</ele>
        <time>2018-02-28T22:00:56Z</time>
      </trkpt>
      <trkpt lat="44.4216" lon="4.10012">
        <ele>163</ele>
        <time>2018-02-28T22:01:56Z</time>
      </trkpt>
      <trkpt lat="44.42147" lon="4.10004">
        <ele>163</ele>
        <time>2018-02-28T22:02:56Z</time>
      </trkpt>
      <trkpt lat="44.42138" lon="4.09986">
        <ele>165</ele>
        <time>2018-02-28T22:03:56Z</time>
      </trkpt>
      <trkpt lat="44.4216" lon="4.09975">
        <ele>164</ele>
        <time>2018-02-28T22:04:56Z</time>
      </trkpt>
      <trkpt lat="44.42179" lon="4.09898">
        <ele>170</ele>
        <time>2018-02-28T22:05:56Z</time>
      </trkpt>
      <trkpt lat="44.42197" lon="4.0988">
        <ele>170</ele>
        <time>2018-02-28T22:06:56Z</time>
      </trkpt>
      <trkpt lat="44.42195" lon="4.09856">
        <ele>172</ele>
        <time>2018-02-28T22:07:56Z</time>
      </trkpt>
      <trkpt lat="44.42198" lon="4.09795">
        <ele>175</ele>
        <time>2018-02-28T22:08:56Z</time>
      </trkpt>
      <trkpt lat="44.42208" lon="4.09702">
        <ele>180</ele>
        <time>2018-02-28T22:09:56Z</time>
      </trkpt>
      <trkpt lat="44.42166" lon="4.09687">
        <ele>184</ele>
        <time>2018-02-28T22:10:56Z</time>
      </trkpt>
      <trkpt lat="44.42149" lon="4.09675">
        <ele>184</ele>
        <time>2018-02-28T22:11:56Z</time>
      </trkpt>
      <trkpt lat="44.42137" lon="4.09661">
        <ele>184</ele>
        <time>2018-02-28T22:12:56Z</time>
      </trkpt>
      <trkpt lat="44.4213" lon="4.0964">
        <ele>185</ele>
        <time>2018-02-28T22:13:56Z</time>
      </trkpt>
      <trkpt lat="44.42163" lon="4.09584">
        <ele>191</ele>
        <time>2018-02-28T22:14:56Z</time>
      </trkpt>
      <trkpt lat="44.422" lon="4.09548">
        <ele>193</ele>
        <time>2018-02-28T22:15:56Z</time>
      </trkpt>
      <trkpt lat="44.4224" lon="4.09487">
        <ele>199</ele>
        <time>2018-02-28T22:16:56Z</time>
      </trkpt>
      <trkpt lat="44.42251" lon="4.09467">
        <ele>200</ele>
        <time>2018-02-28T22:17:56Z</time>
      </trkpt>
      <trkpt lat="44.42263" lon="4.09412">
        <ele>201</ele>
        <time>2018-02-28T22:18:56Z</time>
      </trkpt>
      <trkpt lat="44.42228" lon="4.09381">
        <ele>201</ele>
        <time>2018-02-28T22:19:56Z</time>
      </trkpt>
      <trkpt lat="44.42211" lon="4.0938">
        <ele>201</ele>
        <time>2018-02-28T22:20:56Z</time>
      </trkpt>
      <trkpt lat="44.42194" lon="4.09353">
        <ele>203</ele>
        <time>2018-02-28T22:21:56Z</time>
      </trkpt>
      <trkpt lat="44.42192" lon="4.09321">
        <ele>206</ele>
        <time>2018-02-28T22:22:56Z</time>
      </trkpt>
      <trkpt lat="44.42156" lon="4.09323">
        <ele>205</ele>
        <time>2018-02-28T22:23:56Z</time>
      </trkpt>
      <trkpt lat="44.42173" lon="4.09256">
        <ele>211</ele>
        <time>2018-02-28T22:24:56Z</time>
      </trkpt>
      <trkpt lat="44.42156" lon="4.09225">
        <ele>213</ele>
        <time>2018-02-28T22:25:56Z</time>
      </trkpt>
      <trkpt lat="44.42144" lon="4.09201">
        <ele>213</ele>
        <time>2018-02-28T22:26:56Z</time>
      </trkpt>
      <trkpt lat="44.42124" lon="4.09181">
        <ele>213</ele>
        <time>2018-02-28T22:27:56Z</time>
      </trkpt>
      <trkpt lat="44.42149" lon="4.0915">
        <ele>217</ele>
        <time>2018-02-28T22:28:56Z</time>
      </trkpt>
      <trkpt lat="44.42175" lon="4.09135">
        <ele>220</ele>
        <time>2018-02-28T22:29:56Z</time>
      </trkpt>
      <trkpt lat="44.42196" lon="4.09109">
        <ele>221</ele>
        <time>2018-02-28T22:30:56Z</time>
      </trkpt>
      <trkpt lat="44.42216" lon="4.0906">
        <ele>226</ele>
        <time>2018-02-28T22:31:56Z</time>
      </trkpt>
      <trkpt lat="44.42236" lon="4.08979">
        <ele>239</ele>
        <time>2018-02-28T22:32:56Z</time>
      </trkpt>
      <trkpt lat="44.42241" lon="4.08949">
        <ele>245</ele>
        <time>2018-02-28T22:33:56Z</time>
      </trkpt>
      <trkpt lat="44.42259" lon="4.08908">
        <ele>251</ele>
        <time>2018-02-28T22:34:56Z</time>
      </trkpt>
      <trkpt lat="44.42248" lon="4.0891">
        <ele>252</ele>
        <time>2018-02-28T22:35:56Z</time>
      </trkpt>
      <trkpt lat="44.42233" lon="4.08913">
        <ele>253</ele>
        <time>2018-02-28T22:36:56Z</time>
      </trkpt>
      <trkpt lat="44.42179" lon="4.08923">
        <ele>256</ele>
        <time>2018-02-28T22:37:56Z</time>
      </trkpt>
      <trkpt lat="44.42149" lon="4.08797">
        <ele>290</ele>
        <time>2018-02-28T22:38:56Z</time>
      </trkpt>
      <trkpt lat="44.42152" lon="4.08687">
        <ele>311</ele>
        <time>2018-02-28T22:39:56Z</time>
      </trkpt>
      <trkpt lat="44.4215" lon="4.08539">
        <ele>333</ele>
        <time>2018-02-28T22:40:56Z</time>
      </trkpt>
      <trkpt lat="44.42151" lon="4.08498">
        <ele>338</ele>
        <time>2018-02-28T22:41:56Z</time>
      </trkpt>
      <trkpt lat="44.42161" lon="4.08441">
        <ele>343</ele>
        <time>2018-02-28T22:42:56Z</time>
      </trkpt>
      <trkpt lat="44.4216" lon="4.08346">
        <ele>353</ele>
        <time>2018-02-28T22:43:56Z</time>
      </trkpt>
      <trkpt lat="44.42173" lon="4.08308">
        <ele>356</ele>
        <time>2018-02-28T22:44:56Z</time>
      </trkpt>
      <trkpt lat="44.4219" lon="4.08282">
        <ele>357</ele>
        <time>2018-02-28T22:45:56Z</time>
      </trkpt>
      <trkpt lat="44.42203" lon="4.08267">
        <ele>357</ele>
        <time>2018-02-28T22:46:56Z</time>
      </trkpt>
      <trkpt lat="44.42189" lon="4.08224">
        <ele>359</ele>
        <time>2018-02-28T22:47:56Z</time>
      </trkpt>
      <trkpt lat="44.42195" lon="4.08072">
        <ele>365</ele>
        <time>2018-02-28T22:48:56Z</time>
      </trkpt>
      <trkpt lat="44.4219" lon="4.07999">
        <ele>374</ele>
        <time>2018-02-28T22:49:56Z</time>
      </trkpt>
      <trkpt lat="44.42198" lon="4.07952">
        <ele>381</ele>
        <time>2018-02-28T22:50:56Z</time>
      </trkpt>
      <trkpt lat="44.42206" lon="4.07938">
        <ele>384</ele>
        <time>2018-02-28T22:51:56Z</time>
      </trkpt>
      <trkpt lat="44.42195" lon="4.07842">
        <ele>395</ele>
        <time>2018-02-28T22:52:56Z</time>
      </trkpt>
      <trkpt lat="44.42175" lon="4.07748">
        <ele>408</ele>
        <time>2018-02-28T22:53:56Z</time>
      </trkpt>
      <trkpt lat="44.42161" lon="4.07704">
        <ele>415</ele>
        <time>2018-02-28T22:54:56Z</time>
      </trkpt>
      <trkpt lat="44.42151" lon="4.07663">
        <ele>421</ele>
        <time>2018-02-28T22:55:56Z</time>
      </trkpt>
      <trkpt lat="44.42147" lon="4.07621">
        <ele>427</ele>
        <time>2018-02-28T22:56:56Z</time>
      </trkpt>
      <trkpt lat="44.42133" lon="4.07567">
        <ele>438</ele>
        <time>2018-02-28T22:57:56Z</time>
      </trkpt>
      <trkpt lat="44.42148" lon="4.07533">
        <ele>444</ele>
        <time>2018-02-28T22:58:56Z</time>
      </trkpt>
      <trkpt lat="44.42158" lon="4.07482">
        <ele>454</ele>
        <time>2018-02-28T22:59:56Z</time>
      </trkpt>
      <trkpt lat="44.42174" lon="4.07445">
        <ele>462</ele>
        <time>2018-02-28T23:00:56Z</time>
      </trkpt>
      <trkpt lat="44.42143" lon="4.07449">
        <ele>464</ele>
        <time>2018-02-28T23:01:56Z</time>
      </trkpt>
      <trkpt lat="44.42126" lon="4.07483">
        <ele>459</ele>
        <time>2018-02-28T23:02:56Z</time>
      </trkpt>
      <trkpt lat="44.42116" lon="4.07478">
        <ele>461</ele>
        <time>2018-02-28T23:03:56Z</time>
      </trkpt>
      <trkpt lat="44.42114" lon="4.07468">
        <ele>463</ele>
        <time>2018-02-28T23:04:56Z</time>
      </trkpt>
      <trkpt lat="44.42117" lon="4.07459">
        <ele>464</ele>
        <time>2018-02-28T23:05:56Z</time>
      </trkpt>
      <trkpt lat="44.42115" lon="4.0743">
        <ele>470</ele>
        <time>2018-02-28T23:06:56Z</time>
      </trkpt>
      <trkpt lat="44.42123" lon="4.07368">
        <ele>472</ele>
        <time>2018-02-28T23:07:56Z</time>
      </trkpt>
      <trkpt lat="44.42141" lon="4.0734">
        <ele>472</ele>
        <time>2018-02-28T23:08:56Z</time>
      </trkpt>
      <trkpt lat="44.42186" lon="4.07361">
        <ele>471</ele>
        <time>2018-02-28T23:09:56Z</time>
      </trkpt>
      <trkpt lat="44.42262" lon="4.07398">
        <ele>463</ele>
        <time>2018-02-28T23:10:56Z</time>
      </trkpt>
      <trkpt lat="44.42311" lon="4.07375">
        <ele>456</ele>
        <time>2018-02-28T23:11:56Z</time>
      </trkpt>
      <trkpt lat="44.42334" lon="4.07346">
        <ele>454</ele>
        <time>2018-02-28T23:12:56Z</time>
      </trkpt>
      <trkpt lat="44.42354" lon="4.07334">
        <ele>451</ele>
        <time>2018-02-28T23:13:56Z</time>
      </trkpt>
      <trkpt lat="44.4245" lon="4.07364">
        <ele>428</ele>
        <time>2018-02-28T23:14:56Z</time>
      </trkpt>
      <trkpt lat="44.4246" lon="4.0735">
        <ele>428</ele>
        <time>2018-02-28T23:15:56Z</time>
      </trkpt>
      <trkpt lat="44.42475" lon="4.07331">
        <ele>427</ele>
        <time>2018-02-28T23:16:56Z</time>
      </trkpt>
      <trkpt lat="44.42494" lon="4.07332">
        <ele>424</ele>
        <time>2018-02-28T23:17:56Z</time>
      </trkpt>
      <trkpt lat="44.42527" lon="4.07332">
        <ele>418</ele>
        <time>2018-02-28T23:18:56Z</time>
      </trkpt>
      <trkpt lat="44.42553" lon="4.0734">
        <ele>412</ele>
        <time>2018-02-28T23:19:56Z</time>
      </trkpt>
      <trkpt lat="44.42564" lon="4.07356">
        <ele>408</ele>
        <time>2018-02-28T23:20:56Z</time>
      </trkpt>
      <trkpt lat="44.42564" lon="4.0737">
        <ele>407</ele>
        <time>2018-02-28T23:21:56Z</time>
      </trkpt>
      <trkpt lat="44.42555" lon="4.07389">
        <ele>407</ele>
        <time>2018-02-28T23:22:56Z</time>
      </trkpt>
      <trkpt lat="44.42531" lon="4.07436">
        <ele>407</ele>
        <time>2018-02-28T23:23:56Z</time>
      </trkpt>
      <trkpt lat="44.42507" lon="4.07482">
        <ele>406</ele>
        <time>2018-02-28T23:24:56Z</time>
      </trkpt>
      <trkpt lat="44.42483" lon="4.07524">
        <ele>405</ele>
        <time>2018-02-28T23:25:56Z</time>
      </trkpt>
      <trkpt lat="44.42515" lon="4.07599">
        <ele>391</ele>
        <time>2018-02-28T23:26:56Z</time>
      </trkpt>
      <trkpt lat="44.42518" lon="4.07612">
        <ele>389</ele>
        <time>2018-02-28T23:27:56Z</time>
      </trkpt>
      <trkpt lat="44.42524" lon="4.07632">
        <ele>385</ele>
        <time>2018-02-28T23:28:56Z</time>
      </trkpt>
      <trkpt lat="44.42529" lon="4.07651">
        <ele>382</ele>
        <time>2018-02-28T23:29:56Z</time>
      </trkpt>
      <trkpt lat="44.42536" lon="4.07655">
        <ele>381</ele>
        <time>2018-02-28T23:30:56Z</time>
      </trkpt>
      <trkpt lat="44.42543" lon="4.07656">
        <ele>381</ele>
        <time>2018-02-28T23:31:56Z</time>
      </trkpt>
      <trkpt lat="44.42545" lon="4.0767">
        <ele>379</ele>
        <time>2018-02-28T23:32:56Z</time>
      </trkpt>
      <trkpt lat="44.42547" lon="4.07681">
        <ele>376</ele>
        <time>2018-02-28T23:33:56Z</time>
      </trkpt>
      <trkpt lat="44.42596" lon="4.07683">
        <ele>373</ele>
        <time>2018-02-28T23:34:56Z</time>
      </trkpt>
      <trkpt lat="44.42636" lon="4.07572">
        <ele>374</ele>
        <time>2018-02-28T23:35:56Z</time>
      </trkpt>
      <trkpt lat="44.42693" lon="4.07535">
        <ele>365</ele>
        <time>2018-02-28T23:36:56Z</time>
      </trkpt>
      <trkpt lat="44.42705" lon="4.07492">
        <ele>366</ele>
        <time>2018-02-28T23:37:56Z</time>
      </trkpt>
      <trkpt lat="44.42737" lon="4.07413">
        <ele>368</ele>
        <time>2018-02-28T23:38:56Z</time>
      </trkpt>
      <trkpt lat="44.42756" lon="4.07351">
        <ele>364</ele>
        <time>2018-02-28T23:39:56Z</time>
      </trkpt>
      <trkpt lat="44.42754" lon="4.0733">
        <ele>365</ele>
        <time>2018-02-28T23:40:56Z</time>
      </trkpt>
      <trkpt lat="44.42767" lon="4.07301">
        <ele>360</ele>
        <time>2018-02-28T23:41:56Z</time>
      </trkpt>
      <trkpt lat="44.42762" lon="4.07273">
        <ele>364</ele>
        <time>2018-02-28T23:42:56Z</time>
      </trkpt>
      <trkpt lat="44.428" lon="4.07217">
        <ele>354</ele>
        <time>2018-02-28T23:43:56Z</time>
      </trkpt>
      <trkpt lat="44.42825" lon="4.07194">
        <ele>351</ele>
        <time>2018-02-28T23:44:56Z</time>
      </trkpt>
      <trkpt lat="44.42874" lon="4.07115">
        <ele>340</ele>
        <time>2018-02-28T23:45:56Z</time>
      </trkpt>
      <trkpt lat="44.42915" lon="4.07037">
        <ele>323</ele>
        <time>2018-02-28T23:46:56Z</time>
      </trkpt>
      <trkpt lat="44.4294" lon="4.06982">
        <ele>309</ele>
        <time>2018-02-28T23:47:56Z</time>
      </trkpt>
      <trkpt lat="44.42887" lon="4.06891">
        <ele>311</ele>
        <time>2018-02-28T23:48:56Z</time>
      </trkpt>
      <trkpt lat="44.42938" lon="4.06921">
        <ele>302</ele>
        <time>2018-02-28T23:49:56Z</time>
      </trkpt>
      <trkpt lat="44.42954" lon="4.06913">
        <ele>300</ele>
        <time>2018-02-28T23:50:56Z</time>
      </trkpt>
      <trkpt lat="44.42993" lon="4.06921">
        <ele>296</ele>
        <time>2018-02-28T23:51:56Z</time>
      </trkpt>
      <trkpt lat="44.43021" lon="4.0692">
        <ele>298</ele>
        <time>2018-02-28T23:52:56Z</time>
      </trkpt>
      <trkpt lat="44.43051" lon="4.06934">
        <ele>301</ele>
        <time>2018-02-28T23:53:56Z</time>
      </trkpt>
      <trkpt lat="44.4305" lon="4.06853">
        <ele>310</ele>
        <time>2018-02-28T23:54:56Z</time>
      </trkpt>
      <trkpt lat="44.43065" lon="4.06825">
        <ele>317</ele>
        <time>2018-02-28T23:55:56Z</time>
      </trkpt>
      <trkpt lat="44.43071" lon="4.06849">
        <ele>315</ele>
        <time>2018-02-28T23:56:56Z</time>
      </trkpt>
      <trkpt lat="44.43085" lon="4.06846">
        <ele>319</ele>
        <time>2018-02-28T23:57:56Z</time>
      </trkpt>
      <trkpt lat="44.43096" lon="4.06831">
        <ele>325</ele>
        <time>2018-02-28T23:58:56Z</time>
      </trkpt>
      <trkpt lat="44.43203" lon="4.06814">
        <ele>363</ele>
        <time>2018-02-28T23:59:56Z</time>
      </trkpt>
      <trkpt lat="44.43216" lon="4.0681">
        <ele>367</ele>
        <time>2018-03-01T00:00:56Z</time>
      </trkpt>
      <trkpt lat="44.43225" lon="4.06784">
        <ele>372</ele>
        <time>2018-03-01T00:01:56Z</time>
      </trkpt>
      <trkpt lat="44.43239" lon="4.06787">
        <ele>375</ele>
        <time>2018-03-01T00:02:56Z</time>
      </trkpt>
      <trkpt lat="44.43258" lon="4.06776">
        <ele>380</ele>
        <time>2018-03-01T00:03:56Z</time>
      </trkpt>
      <trkpt lat="44.43265" lon="4.06755">
        <ele>382</ele>
        <time>2018-03-01T00:04:56Z</time>
      </trkpt>
      <trkpt lat="44.43258" lon="4.06722">
        <ele>387</ele>
        <time>2018-03-01T00:05:56Z</time>
      </trkpt>
      <trkpt lat="44.43274" lon="4.06697">
        <ele>392</ele>
        <time>2018-03-01T00:06:56Z</time>
      </trkpt>
      <trkpt lat="44.43271" lon="4.06664">
        <ele>397</ele>
        <time>2018-03-01T00:07:56Z</time>
      </trkpt>
      <trkpt lat="44.43296" lon="4.06626">
        <ele>401</ele>
        <time>2018-03-01T00:08:56Z</time>
      </trkpt>
      <trkpt lat="44.43306" lon="4.06612">
        <ele>403</ele>
        <time>2018-03-01T00:09:56Z</time>
      </trkpt>
      <trkpt lat="44.43325" lon="4.06583">
        <ele>405</ele>
        <time>2018-03-01T00:10:56Z</time>
      </trkpt>
      <trkpt lat="44.43362" lon="4.0652">
        <ele>412</ele>
        <time>2018-03-01T00:11:56Z</time>
      </trkpt>
      <trkpt lat="44.43415" lon="4.06477">
        <ele>411</ele>
        <time>2018-03-01T00:12:56Z</time>
      </trkpt>
      <trkpt lat="44.43442" lon="4.06432">
        <ele>420</ele>
        <time>2018-03-01T00:13:56Z</time>
      </trkpt>
      <trkpt lat="44.43477" lon="4.06428">
        <ele>421</ele>
        <time>2018-03-01T00:14:56Z</time>
      </trkpt>
      <trkpt lat="44.43536" lon="4.06471">
        <ele>411</ele>
        <time>2018-03-01T00:15:56Z</time>
      </trkpt>
      <trkpt lat="44.43565" lon="4.06505">
        <ele>402</ele>
        <time>2018-03-01T00:16:56Z</time>
      </trkpt>
      <trkpt lat="44.43623" lon="4.06524">
        <ele>397</ele>
        <time>2018-03-01T00:17:56Z</time>
      </trkpt>
      <trkpt lat="44.43681" lon="4.06557">
        <ele>389</ele>
        <time>2018-03-01T00:18:56Z</time>
      </trkpt>
      <trkpt lat="44.43726" lon="4.06586">
        <ele>379</ele>
        <time>2018-03-01T00:19:56Z</time>
      </trkpt>
      <trkpt lat="44.43742" lon="4.06587">
        <ele>378</ele>
        <time>2018-03-01T00:20:56Z</time>
      </trkpt>
      <trkpt lat="44.43741" lon="4.06609">
        <ele>373</ele>
        <time>2018-03-01T00:21:56Z</time>
      </trkpt>
      <trkpt lat="44.43707" lon="4.06608">
        <ele>374</ele>
        <time>2018-03-01T00:22:56Z</time>
      </trkpt>
      <trkpt lat="44.43647" lon="4.06589">
        <ele>379</ele>
        <time>2018-03-01T00:23:56Z</time>
      </trkpt>
      <trkpt lat="44.43578" lon="4.06591">
        <ele>371</ele>
        <time>2018-03-01T00:24:56Z</time>
      </trkpt>
      <trkpt lat="44.43628" lon="4.06612">
        <ele>370</ele>
        <time>2018-03-01T00:25:56Z</time>
      </trkpt>
      <trkpt lat="44.43669" lon="4.06637">
        <ele>366</ele>
        <time>2018-03-01T00:26:56Z</time>
      </trkpt>
      <trkpt lat="44.43683" lon="4.0666">
        <ele>358</ele>
        <time>2018-03-01T00:27:56Z</time>
      </trkpt>
      <trkpt lat="44.43585" lon="4.06636">
        <ele>357</ele>
        <time>2018-03-01T00:28:56Z</time>
      </trkpt>
      <trkpt lat="44.4369" lon="4.06713">
        <ele>339</ele>
        <time>2018-03-01T00:29:56Z</time>
      </trkpt>
      <trkpt lat="44.4375" lon="4.06711">
        <ele>340</ele>
        <time>2018-03-01T00:30:56Z</time>
      </trkpt>
      <trkpt lat="44.43835" lon="4.06695">
        <ele>324</ele>
        <time>2018-03-01T00:31:56Z</time>
      </trkpt>
      <trkpt lat="44.43764" lon="4.06733">
        <ele>328</ele>
        <time>2018-03-01T00:32:56Z</time>
      </trkpt>
      <trkpt lat="44.43692" lon="4.06761">
        <ele>321</ele>
        <time>2018-03-01T00:33:56Z</time>
      </trkpt>
      <trkpt lat="44.43638" lon="4.06754">
        <ele>326</ele>
        <time>2018-03-01T00:34:56Z</time>
      </trkpt>
      <trkpt lat="44.4362" lon="4.06763">
        <ele>324</ele>
        <time>2018-03-01T00:35:56Z</time>
      </trkpt>
      <trkpt lat="44.4358" lon="4.06756">
        <ele>328</ele>
        <time>2018-03-01T00:36:56Z</time>
      </trkpt>
      <trkpt lat="44.43585" lon="4.06799">
        <ele>322</ele>
        <time>2018-03-01T00:37:56Z</time>
      </trkpt>
      <trkpt lat="44.43591" lon="4.06829">
        <ele>317</ele>
        <time>2018-03-01T00:38:56Z</time>
      </trkpt>
      <trkpt lat="44.43592" lon="4.06887">
        <ele>313</ele>
        <time>2018-03-01T00:39:56Z</time>
      </trkpt>
      <trkpt lat="44.43606" lon="4.06932">
        <ele>304</ele>
        <time>2018-03-01T00:40:56Z</time>
      </trkpt>
      <trkpt lat="44.43602" lon="4.06955">
        <ele>302</ele>
        <time>2018-03-01T00:41:56Z</time>
      </trkpt>
      <trkpt lat="44.43586" lon="4.06982">
        <ele>303</ele>
        <time>2018-03-01T00:42:56Z</time>
      </trkpt>
      <trkpt lat="44.43551" lon="4.07014">
        <ele>310</ele>
        <time>2018-03-01T00:43:56Z</time>
      </trkpt>
      <trkpt lat="44.4354" lon="4.07065">
        <ele>300</ele>
        <time>2018-03-01T00:44:56Z</time>
      </trkpt>
      <trkpt lat="44.43517" lon="4.071">
        <ele>299</ele>
        <time>2018-03-01T00:45:56Z</time>
      </trkpt>
      <trkpt lat="44.43548" lon="4.07093">
        <ele>289</ele>
        <time>2018-03-01T00:46:56Z</time>
      </trkpt>
      <trkpt lat="44.43565" lon="4.07067">
        <ele>290</ele>
        <time>2018-03-01T00:47:56Z</time>
      </trkpt>
      <trkpt lat="44.43572" lon="4.07037">
        <ele>295</ele>
        <time>2018-03-01T00:48:56Z</time>
      </trkpt>
      <trkpt lat="44.4364" lon="4.07003">
        <ele>283</ele>
        <time>2018-03-01T00:49:56Z</time>
      </trkpt>
      <trkpt lat="44.43611" lon="4.07048">
        <ele>280</ele>
        <time>2018-03-01T00:50:56Z</time>
      </trkpt>
      <trkpt lat="44.43586" lon="4.07059">
        <ele>285</ele>
        <time>2018-03-01T00:51:56Z</time>
      </trkpt>
      <trkpt lat="44.43599" lon="4.07113">
        <ele>268</ele>
        <time>2018-03-01T00:52:56Z</time>
      </trkpt>
      <trkpt lat="44.43598" lon="4.07134">
        <ele>265</ele>
        <time>2018-03-01T00:53:56Z</time>
      </trkpt>
      <trkpt lat="44.43579" lon="4.07138">
        <ele>269</ele>
        <time>2018-03-01T00:54:56Z</time>
      </trkpt>
      <trkpt lat="44.43552" lon="4.0714">
        <ele>277</ele>
        <time>2018-03-01T00:55:56Z</time>
      </trkpt>
      <trkpt lat="44.43521" lon="4.07197">
        <ele>270</ele>
        <time>2018-03-01T00:56:56Z</time>
      </trkpt>
      <trkpt lat="44.4349" lon="4.07243">
        <ele>262</ele>
        <time>2018-03-01T00:57:56Z</time>
      </trkpt>
      <trkpt lat="44.43475" lon="4.07266">
        <ele>259</ele>
        <time>2018-03-01T00:58:56Z</time>
      </trkpt>
      <trkpt lat="44.43452" lon="4.07298">
        <ele>254</ele>
        <time>2018-03-01T00:59:56Z</time>
      </trkpt>
      <trkpt lat="44.43439" lon="4.07312">
        <ele>251</ele>
        <time>2018-03-01T01:00:56Z</time>
      </trkpt>
      <trkpt lat="44.43455" lon="4.07313">
        <ele>247</ele>
        <time>2018-03-01T01:01:56Z</time>
      </trkpt>
      <trkpt lat="44.43482" lon="4.07282">
        <ele>251</ele>
        <time>2018-03-01T01:02:56Z</time>
      </trkpt>
      <trkpt lat="44.43533" lon="4.07245">
        <ele>252</ele>
        <time>2018-03-01T01:03:56Z</time>
      </trkpt>
      <trkpt lat="44.4348" lon="4.07323">
        <ele>238</ele>
        <time>2018-03-01T01:04:56Z</time>
      </trkpt>
      <trkpt lat="44.43557" lon="4.07266">
        <ele>241</ele>
        <time>2018-03-01T01:05:56Z</time>
      </trkpt>
      <trkpt lat="44.43547" lon="4.07285">
        <ele>238</ele>
        <time>2018-03-01T01:06:56Z</time>
      </trkpt>
      <trkpt lat="44.43485" lon="4.07368">
        <ele>220</ele>
        <time>2018-03-01T01:07:56Z</time>
      </trkpt>
      <trkpt lat="44.43583" lon="4.0731">
        <ele>226</ele>
        <time>2018-03-01T01:08:56Z</time>
      </trkpt>
      <trkpt lat="44.43583" lon="4.07328">
        <ele>221</ele>
        <time>2018-03-01T01:09:56Z</time>
      </trkpt>
      <trkpt lat="44.43531" lon="4.07379">
        <ele>211</ele>
        <time>2018-03-01T01:10:56Z</time>
      </trkpt>
      <trkpt lat="44.4349" lon="4.07413">
        <ele>202</ele>
        <time>2018-03-01T01:11:56Z</time>
      </trkpt>
      <trkpt lat="44.43547" lon="4.07408">
        <ele>202</ele>
        <time>2018-03-01T01:12:56Z</time>
      </trkpt>
      <trkpt lat="44.43566" lon="4.074">
        <ele>203</ele>
        <time>2018-03-01T01:13:56Z</time>
      </trkpt>
      <trkpt lat="44.43608" lon="4.07445">
        <ele>196</ele>
        <time>2018-03-01T01:14:56Z</time>
      </trkpt>
      <trkpt lat="44.43569" lon="4.07464">
        <ele>191</ele>
        <time>2018-03-01T01:15:56Z</time>
      </trkpt>
      <trkpt lat="44.43517" lon="4.07455">
        <ele>192</ele>
        <time>2018-03-01T01:16:56Z</time>
      </trkpt>
      <trkpt lat="44.4352" lon="4.07474">
        <ele>188</ele>
        <time>2018-03-01T01:17:56Z</time>
      </trkpt>
      <trkpt lat="44.43555" lon="4.07527">
        <ele>184</ele>
        <time>2018-03-01T01:18:56Z</time>
      </trkpt>
      <trkpt lat="44.43539" lon="4.07574">
        <ele>185</ele>
        <time>2018-03-01T01:19:56Z</time>
      </trkpt>
      <trkpt lat="44.43468" lon="4.07569">
        <ele>189</ele>
        <time>2018-03-01T01:20:56Z</time>
      </trkpt>
      <trkpt lat="44.43408" lon="4.07584">
        <ele>192</ele>
        <time>2018-03-01T01:21:56Z</time>
      </trkpt>
      <trkpt lat="44.43482" lon="4.07597">
        <ele>193</ele>
        <time>2018-03-01T01:22:56Z</time>
      </trkpt>
      <trkpt lat="44.43519" lon="4.07625">
        <ele>197</ele>
        <time>2018-03-01T01:23:56Z</time>
      </trkpt>
      <trkpt lat="44.43539" lon="4.07646">
        <ele>198</ele>
        <time>2018-03-01T01:24:56Z</time>
      </trkpt>
      <trkpt lat="44.4358" lon="4.07681">
        <ele>195</ele>
        <time>2018-03-01T01:25:56Z</time>
      </trkpt>
      <trkpt lat="44.43603" lon="4.07756">
        <ele>206</ele>
        <time>2018-03-01T01:26:56Z</time>
      </trkpt>
      <trkpt lat="44.43638" lon="4.07823">
        <ele>207</ele>
        <time>2018-03-01T01:27:56Z</time>
      </trkpt>
      <trkpt lat="44.4364" lon="4.07913">
        <ele>207</ele>
        <time>2018-03-01T01:28:56Z</time>
      </trkpt>
      <trkpt lat="44.43642" lon="4.07968">
        <ele>207</ele>
        <time>2018-03-01T01:29:56Z</time>
      </trkpt>
      <trkpt lat="44.43701" lon="4.07959">
        <ele>206</ele>
        <time>2018-03-01T01:30:56Z</time>
      </trkpt>
      <trkpt lat="44.4371" lon="4.0798">
        <ele>208</ele>
        <time>2018-03-01T01:31:56Z</time>
      </trkpt>
      <trkpt lat="44.43712" lon="4.07999">
        <ele>210</ele>
        <time>2018-03-01T01:32:56Z</time>
      </trkpt>
      <trkpt lat="44.43648" lon="4.08024">
        <ele>212</ele>
        <time>2018-03-01T01:33:56Z</time>
      </trkpt>
      <trkpt lat="44.43684" lon="4.0804">
        <ele>216</ele>
        <time>2018-03-01T01:34:56Z</time>
      </trkpt>
      <trkpt lat="44.43648" lon="4.08069">
        <ele>219</ele>
        <time>2018-03-01T01:35:56Z</time>
      </trkpt>
      <trkpt lat="44.43605" lon="4.08087">
        <ele>220</ele>
        <time>2018-03-01T01:36:56Z</time>
      </trkpt>
      <trkpt lat="44.43645" lon="4.08122">
        <ele>233</ele>
        <time>2018-03-01T01:37:56Z</time>
      </trkpt>
      <trkpt lat="44.43729" lon="4.08158">
        <ele>250</ele>
        <time>2018-03-01T01:38:56Z</time>
      </trkpt>
      <trkpt lat="44.43723" lon="4.08174">
        <ele>254</ele>
        <time>2018-03-01T01:39:56Z</time>
      </trkpt>
      <trkpt lat="44.43711" lon="4.08175">
        <ele>254</ele>
        <time>2018-03-01T01:40:56Z</time>
      </trkpt>
      <trkpt lat="44.43648" lon="4.082">
        <ele>258</ele>
        <time>2018-03-01T01:41:56Z</time>
      </trkpt>
      <trkpt lat="44.43749" lon="4.08256">
        <ele>276</ele>
        <time>2018-03-01T01:42:56Z</time>
      </trkpt>
      <trkpt lat="44.43664" lon="4.08258">
        <ele>280</ele>
        <time>2018-03-01T01:43:56Z</time>
      </trkpt>
      <trkpt lat="44.43712" lon="4.0829">
        <ele>289</ele>
        <time>2018-03-01T01:44:56Z</time>
      </trkpt>
      <trkpt lat="44.43804" lon="4.0831">
        <ele>298</ele>
        <time>2018-03-01T01:45:56Z</time>
      </trkpt>
      <trkpt lat="44.43742" lon="4.08336">
        <ele>307</ele>
        <time>2018-03-01T01:46:56Z</time>
      </trkpt>
      <trkpt lat="44.43672" lon="4.08341">
        <ele>298</ele>
        <time>2018-03-01T01:47:56Z</time>
      </trkpt>
      <trkpt lat="44.43669" lon="4.08366">
        <ele>299</ele>
        <time>2018-03-01T01:48:56Z</time>
      </trkpt>
      <trkpt lat="44.437" lon="4.08481">
        <ele>312</ele>
        <time>2018-03-01T01:49:56Z</time>
      </trkpt>
      <trkpt lat="44.43721" lon="4.08569">
        <ele>318</ele>
        <time>2018-03-01T01:50:56Z</time>
      </trkpt>
      <trkpt lat="44.43732" lon="4.08496">
        <ele>328</ele>
        <time>2018-03-01T01:51:56Z</time>
      </trkpt>
      <trkpt lat="44.43719" lon="4.08426">
        <ele>320</ele>
        <time>2018-03-01T01:52:56Z</time>
      </trkpt>
      <trkpt lat="44.43733" lon="4.08412">
        <ele>324</ele>
        <time>2018-03-01T01:53:56Z</time>
      </trkpt>
      <trkpt lat="44.43765" lon="4.08417">
        <ele>333</ele>
        <time>2018-03-01T01:54:56Z</time>
      </trkpt>
      <trkpt lat="44.43825" lon="4.08428">
        <ele>342</ele>
        <time>2018-03-01T01:55:56Z</time>
      </trkpt>
      <trkpt lat="44.43798" lon="4.08446">
        <ele>341</ele>
        <time>2018-03-01T01:56:56Z</time>
      </trkpt>
      <trkpt lat="44.4379" lon="4.0846">
        <ele>342</ele>
        <time>2018-03-01T01:57:56Z</time>
      </trkpt>
      <trkpt lat="44.43789" lon="4.08488">
        <ele>346</ele>
        <time>2018-03-01T01:58:56Z</time>
      </trkpt>
      <trkpt lat="44.4381" lon="4.08488">
        <ele>351</ele>
        <time>2018-03-01T01:59:56Z</time>
      </trkpt>
      <trkpt lat="44.43848" lon="4.08507">
        <ele>361</ele>
        <time>2018-03-01T02:00:56Z</time>
      </trkpt>
      <trkpt lat="44.43887" lon="4.08484">
        <ele>362</ele>
        <time>2018-03-01T02:01:56Z</time>
      </trkpt>
      <trkpt lat="44.43903" lon="4.08456">
        <ele>357</ele>
        <time>2018-03-01T02:02:56Z</time>
      </trkpt>
      <trkpt lat="44.43926" lon="4.08443">
        <ele>353</ele>
        <time>2018-03-01T02:03:56Z</time>
      </trkpt>
      <trkpt lat="44.43954" lon="4.08459">
        <ele>350</ele>
        <time>2018-03-01T02:04:56Z</time>
      </trkpt>
      <trkpt lat="44.43963" lon="4.08484">
        <ele>356</ele>
        <time>2018-03-01T02:05:56Z</time>
      </trkpt>
      <trkpt lat="44.43979" lon="4.08523">
        <ele>360</ele>
        <time>2018-03-01T02:06:56Z</time>
      </trkpt>
      <trkpt lat="44.44006" lon="4.08543">
        <ele>359</ele>
        <time>2018-03-01T02:07:56Z</time>
      </trkpt>
      <trkpt lat="44.44016" lon="4.08573">
        <ele>363</ele>
        <time>2018-03-01T02:08:56Z</time>
      </trkpt>
      <trkpt lat="44.44056" lon="4.0861">
        <ele>365</ele>
        <time>2018-03-01T02:09:56Z</time>
      </trkpt>
      <trkpt lat="44.44089" lon="4.08636">
        <ele>369</ele>
        <time>2018-03-01T02:10:56Z</time>
      </trkpt>
      <trkpt lat="44.44147" lon="4.08608">
        <ele>380</ele>
        <time>2018-03-01T02:11:56Z</time>
      </trkpt>
      <trkpt lat="44.44159" lon="4.08655">
        <ele>386</ele>
        <time>2018-03-01T02:12:56Z</time>
      </trkpt>
      <trkpt lat="44.44185" lon="4.08724">
        <ele>386</ele>
        <time>2018-03-01T02:13:56Z</time>
      </trkpt>
      <trkpt lat="44.4422" lon="4.0878">
        <ele>388</ele>
        <time>2018-03-01T02:14:56Z</time>
      </trkpt>
      <trkpt lat="44.44242" lon="4.08809">
        <ele>390</ele>
        <time>2018-03-01T02:15:56Z</time>
      </trkpt>
      <trkpt lat="44.44254" lon="4.08851">
        <ele>389</ele>
        <time>2018-03-01T02:16:56Z</time>
      </trkpt>
      <trkpt lat="44.443" lon="4.08923">
        <ele>392</ele>
        <time>2018-03-01T02:17:56Z</time>
      </trkpt>
      <trkpt lat="44.44323" lon="4.08967">
        <ele>394</ele>
        <time>2018-03-01T02:18:56Z</time>
      </trkpt>
      <trkpt lat="44.44349" lon="4.0899">
        <ele>399</ele>
        <time>2018-03-01T02:19:56Z</time>
      </trkpt>
      <trkpt lat="44.44342" lon="4.09028">
        <ele>398</ele>
        <time>2018-03-01T02:20:56Z</time>
      </trkpt>
      <trkpt lat="44.44325" lon="4.09056">
        <ele>396</ele>
        <time>2018-03-01T02:21:56Z</time>
      </trkpt>
      <trkpt lat="44.44299" lon="4.09098">
        <ele>390</ele>
        <time>2018-03-01T02:22:56Z</time>
      </trkpt>
      <trkpt lat="44.44288" lon="4.09142">
        <ele>387</ele>
        <time>2018-03-01T02:23:56Z</time>
      </trkpt>
      <trkpt lat="44.44282" lon="4.09267">
        <ele>384</ele>
        <time>2018-03-01T02:24:56Z</time>
      </trkpt>
      <trkpt lat="44.44223" lon="4.09252">
        <ele>378</ele>
        <time>2018-03-01T02:25:56Z</time>
      </trkpt>
      <trkpt lat="44.44173" lon="4.09299">
        <ele>374</ele>
        <time>2018-03-01T02:26:56Z</time>
      </trkpt>
      <trkpt lat="44.44071" lon="4.09276">
        <ele>368</ele>
        <time>2018-03-01T02:27:56Z</time>
      </trkpt>
      <trkpt lat="44.43987" lon="4.09274">
        <ele>366</ele>
        <time>2018-03-01T02:28:56Z</time>
      </trkpt>
      <trkpt lat="44.43944" lon="4.09283">
        <ele>363</ele>
        <time>2018-03-01T02:29:56Z</time>
      </trkpt>
      <trkpt lat="44.43925" lon="4.09283">
        <ele>362</ele>
        <time>2018-03-01T02:30:56Z</time>
      </trkpt>
      <trkpt lat="44.43899" lon="4.09244">
        <ele>360</ele>
        <time>2018-03-01T02:31:56Z</time>
      </trkpt>
      <trkpt lat="44.43875" lon="4.09215">
        <ele>354</ele>
        <time>2018-03-01T02:32:56Z</time>
      </trkpt>
      <trkpt lat="44.43861" lon="4.09244">
        <ele>354</ele>
        <time>2018-03-01T02:33:56Z</time>
      </trkpt>
      <trkpt lat="44.43849" lon="4.09259">
        <ele>352</ele>
        <time>2018-03-01T02:34:56Z</time>
      </trkpt>
      <trkpt lat="44.43779" lon="4.0923">
        <ele>343</ele>
        <time>2018-03-01T02:35:56Z</time>
      </trkpt>
      <trkpt lat="44.43753" lon="4.09198">
        <ele>340</ele>
        <time>2018-03-01T02:36:56Z</time>
      </trkpt>
      <trkpt lat="44.43753" lon="4.09217">
        <ele>341</ele>
        <time>2018-03-01T02:37:56Z</time>
      </trkpt>
      <trkpt lat="44.43696" lon="4.09236">
        <ele>336</ele>
        <time>2018-03-01T02:38:56Z</time>
      </trkpt>
      <trkpt lat="44.43658" lon="4.09258">
        <ele>332</ele>
        <time>2018-03-01T02:39:56Z</time>
      </trkpt>
      <trkpt lat="44.43639" lon="4.09276">
        <ele>329</ele>
        <time>2018-03-01T02:40:56Z</time>
      </trkpt>
      <trkpt lat="44.43586" lon="4.09301">
        <ele>321</ele>
        <time>2018-03-01T02:41:56Z</time>
      </trkpt>
      <trkpt lat="44.43566" lon="4.09295">
        <ele>318</ele>
        <time>2018-03-01T02:42:56Z</time>
      </trkpt>
      <trkpt lat="44.43487" lon="4.0931">
        <ele>303</ele>
        <time>2018-03-01T02:43:56Z</time>
      </trkpt>
      <trkpt lat="44.43422" lon="4.09333">
        <ele>297</ele>
        <time>2018-03-01T02:44:56Z</time>
      </trkpt>
      <trkpt lat="44.43354" lon="4.09285">
        <ele>292</ele>
        <time>2018-03-01T02:45:56Z</time>
      </trkpt>
      <trkpt lat="44.43339" lon="4.09293">
        <ele>291</ele>
        <time>2018-03-01T02:46:56Z</time>
      </trkpt>
      <trkpt lat="44.43335" lon="4.09324">
        <ele>293</ele>
        <time>2018-03-01T02:47:56Z</time>
      </trkpt>
      <trkpt lat="44.43324" lon="4.09354">
        <ele>293</ele>
        <time>2018-03-01T02:48:56Z</time>
      </trkpt>
      <trkpt lat="44.43306" lon="4.09379">
        <ele>292</ele>
        <time>2018-03-01T02:49:56Z</time>
      </trkpt>
      <trkpt lat="44.43269" lon="4.09427">
        <ele>289</ele>
        <time>2018-03-01T02:50:56Z</time>
      </trkpt>
      <trkpt lat="44.43252" lon="4.09451">
        <ele>287</ele>
        <time>2018-03-01T02:51:56Z</time>
      </trkpt>
      <trkpt lat="44.43238" lon="4.09526">
        <ele>287</ele>
        <time>2018-03-01T02:52:56Z</time>
      </trkpt>
      <trkpt lat="44.43255" lon="4.09601">
        <ele>293</ele>
        <time>2018-03-01T02:53:56Z</time>
      </trkpt>
      <trkpt lat="44.43249" lon="4.09653">
        <ele>289</ele>
        <time>2018-03-01T02:54:56Z</time>
      </trkpt>
      <trkpt lat="44.4325" lon="4.09716">
        <ele>289</ele>
        <time>2018-03-01T02:55:56Z</time>
      </trkpt>
      <trkpt lat="44.43249" lon="4.09743">
        <ele>289</ele>
        <time>2018-03-01T02:56:56Z</time>
      </trkpt>
      <trkpt lat="44.43247" lon="4.09773">
        <ele>290</ele>
        <time>2018-03-01T02:57:56Z</time>
      </trkpt>
      <trkpt lat="44.43221" lon="4.09827">
        <ele>289</ele>
        <time>2018-03-01T02:58:56Z</time>
      </trkpt>
      <trkpt lat="44.43163" lon="4.09858">
        <ele>277</ele>
        <time>2018-03-01T02:59:56Z</time>
      </trkpt>
      <trkpt lat="44.43147" lon="4.0986">
        <ele>273</ele>
        <time>2018-03-01T03:00:56Z</time>
      </trkpt>
      <trkpt lat="44.43128" lon="4.09901">
        <ele>271</ele>
        <time>2018-03-01T03:01:56Z</time>
      </trkpt>
      <trkpt lat="44.43132" lon="4.09952">
        <ele>273</ele>
        <time>2018-03-01T03:02:56Z</time>
      </trkpt>
      <trkpt lat="44.43125" lon="4.09985">
        <ele>270</ele>
        <time>2018-03-01T03:03:56Z</time>
      </trkpt>
      <trkpt lat="44.431" lon="4.10015">
        <ele>264</ele>
        <time>2018-03-01T03:04:56Z</time>
      </trkpt>
      <trkpt lat="44.43078" lon="4.10029">
        <ele>261</ele>
        <time>2018-03-01T03:05:56Z</time>
      </trkpt>
      <trkpt lat="44.43045" lon="4.10026">
        <ele>260</ele>
        <time>2018-03-01T03:06:56Z</time>
      </trkpt>
      <trkpt lat="44.43006" lon="4.09982">
        <ele>252</ele>
        <time>2018-03-01T03:07:56Z</time>
      </trkpt>
      <trkpt lat="44.42982" lon="4.09964">
        <ele>251</ele>
        <time>2018-03-01T03:08:56Z</time>
      </trkpt>
      <trkpt lat="44.42961" lon="4.09934">
        <ele>249</ele>
        <time>2018-03-01T03:09:56Z</time>
      </trkpt>
      <trkpt lat="44.42909" lon="4.09883">
        <ele>242</ele>
        <time>2018-03-01T03:10:56Z</time>
      </trkpt>
      <trkpt lat="44.42849" lon="4.09874">
        <ele>240</ele>
        <time>2018-03-01T03:11:56Z</time>
      </trkpt>
      <trkpt lat="44.42808" lon="4.09881">
        <ele>239</ele>
        <time>2018-03-01T03:12:56Z</time>
      </trkpt>
      <trkpt lat="44.4276" lon="4.09895">
        <ele>236</ele>
        <time>2018-03-01T03:13:56Z</time>
      </trkpt>
      <trkpt lat="44.42727" lon="4.09843">
        <ele>232</ele>
        <time>2018-03-01T03:14:56Z</time>
      </trkpt>
      <trkpt lat="44.42669" lon="4.09791">
        <ele>228</ele>
        <time>2018-03-01T03:15:56Z</time>
      </trkpt>
      <trkpt lat="44.42613" lon="4.09774">
        <ele>222</ele>
        <time>2018-03-01T03:16:56Z</time>
      </trkpt>
      <trkpt lat="44.42595" lon="4.09752">
        <ele>221</ele>
        <time>2018-03-01T03:17:56Z</time>
      </trkpt>
      <trkpt lat="44.4261" lon="4.09718">
        <ele>219</ele>
        <time>2018-03-01T03:18:56Z</time>
      </trkpt>
      <trkpt lat="44.42659" lon="4.09676">
        <ele>220</ele>
        <time>2018-03-01T03:19:56Z</time>
      </trkpt>
      <trkpt lat="44.4268" lon="4.09666">
        <ele>220</ele>
        <time>2018-03-01T03:20:56Z</time>
      </trkpt>
      <trkpt lat="44.42704" lon="4.09643">
        <ele>217</ele>
        <time>2018-03-01T03:21:56Z</time>
      </trkpt>
      <trkpt lat="44.42669" lon="4.0963">
        <ele>213</ele>
        <time>2018-03-01T03:22:56Z</time>
      </trkpt>
      <trkpt lat="44.42632" lon="4.09641">
        <ele>210</ele>
        <time>2018-03-01T03:23:56Z</time>
      </trkpt>
      <trkpt lat="44.42586" lon="4.09662">
        <ele>207</ele>
        <time>2018-03-01T03:24:56Z</time>
      </trkpt>
      <trkpt lat="44.42578" lon="4.09646">
        <ele>201</ele>
        <time>2018-03-01T03:25:56Z</time>
      </trkpt>
      <trkpt lat="44.4253" lon="4.09695">
        <ele>195</ele>
        <time>2018-03-01T03:26:56Z</time>
      </trkpt>
      <trkpt lat="44.42506" lon="4.09711">
        <ele>191</ele>
        <time>2018-03-01T03:27:56Z</time>
      </trkpt>
      <trkpt lat="44.42449" lon="4.09777">
        <ele>185</ele>
        <time>2018-03-01T03:28:56Z</time>
      </trkpt>
      <trkpt lat="44.42406" lon="4.09823">
        <ele>182</ele>
        <time>2018-03-01T03:29:56Z</time>
      </trkpt>
      <trkpt lat="44.42385" lon="4.09861">
        <ele>183</ele>
        <time>2018-03-01T03:30:56Z</time>
      </trkpt>
      <trkpt lat="44.42391" lon="4.09887">
        <ele>188</ele>
        <time>2018-03-01T03:31:56Z</time>
      </trkpt>
      <trkpt lat="44.42452" lon="4.09831">
        <ele>194</ele>
        <time>2018-03-01T03:32:56Z</time>
      </trkpt>
      <trkpt lat="44.42374" lon="4.0991">
        <ele>187</ele>
        <time>2018-03-01T03:33:56Z</time>
      </trkpt>
      <trkpt lat="44.42354" lon="4.09935">
        <ele>186</ele>
        <time>2018-03-01T03:34:56Z</time>
      </trkpt>
      <trkpt lat="44.42346" lon="4.09958">
        <ele>187</ele>
        <time>2018-03-01T03:35:56Z</time>
      </trkpt>
      <trkpt lat="44.42318" lon="4.0997">
        <ele>183</ele>
        <time>2018-03-01T03:36:56Z</time>
      </trkpt>
      <trkpt lat="44.423" lon="4.09991">
        <ele>182</ele>
        <time>2018-03-01T03:37:56Z</time>
      </trkpt>
      <trkpt lat="44.42275" lon="4.10014">
        <ele>180</ele>
        <time>2018-03-01T03:38:56Z</time>
      </trkpt>
      <trkpt lat="44.42255" lon="4.10025">
        <ele>176</ele>
        <time>2018-03-01T03:39:56Z</time>
      </trkpt>
      <trkpt lat="44.42237" lon="4.10031">
        <ele>174</ele>
        <time>2018-03-01T03:40:56Z</time>
      </trkpt>
      <trkpt lat="44.42151" lon="4.1014">
        <ele>174</ele>
        <time>2018-03-01T03:41:56Z</time>
      </trkpt>
      <trkpt lat="44.42128" lon="4.10224">
        <ele>190</ele>
        <time>2018-03-01T03:42:56Z</time>
      </trkpt>
      <trkpt lat="44.42095" lon="4.10263">
        <ele>191</ele>
        <time>2018-03-01T03:43:56Z</time>
      </trkpt>
      <trkpt lat="44.42054" lon="4.10295">
        <ele>193</ele>
        <time>2018-03-01T03:44:56Z</time>
      </trkpt>
      <trkpt lat="44.41983" lon="4.10344">
        <ele>190</ele>
        <time>2018-03-01T03:45:56Z</time>
      </trkpt>
      <trkpt lat="44.41865" lon="4.10394">
        <ele>196</ele>
        <time>2018-03-01T03:46:56Z</time>
      </trkpt>
      <trkpt lat="44.41809" lon="4.10425">
        <ele>208</ele>
        <time>2018-03-01T03:47:56Z</time>
      </trkpt>
    </trkseg>
  </trk>
</gpx>